Time;durP1;ratioP1;P1;durP2;ratioP2;P2;SDS_P1;SDS_P2;PMS_P1;PMS_P2;Temp;Humidity;BMP_temperature;BMP_pressure;BME280_temperature;BME280_humidity;BME280_pressure;Samples;Min_cycle;Max_cycle;Signal;HPM_P1;HPM_P2
2021/12/06 00:01:52;;;;;;;42.40;23.70;;;2.90;99.90;;;;;;5024017;28;20405;-78
2021/12/06 00:04:23;;;;;;;37.72;21.80;;;2.80;99.90;;;;;;5022795;28;20057;-78
2021/12/06 00:06:53;;;;;;;37.08;22.38;;;2.90;99.90;;;;;;5023899;28;20393;-78
2021/12/06 00:09:21;;;;;;;42.25;23.67;;;2.90;99.90;;;;;;5040029;28;20043;-78
2021/12/06 00:11:50;;;;;;;40.75;23.55;;;2.90;99.90;;;;;;5040056;28;20037;-78
2021/12/06 00:14:16;;;;;;;42.55;25.10;;;2.90;99.90;;;;;;5023025;28;20087;-79
2021/12/06 00:16:41;;;;;;;42.70;25.13;;;2.80;99.90;;;;;;5037531;28;20524;-78
2021/12/06 00:19:07;;;;;;;44.58;24.40;;;2.80;99.90;;;;;;5043240;28;20036;-78
2021/12/06 00:21:33;;;;;;;45.28;25.23;;;2.80;99.90;;;;;;5043164;28;20047;-78
2021/12/06 00:23:59;;;;;;;47.63;26.67;;;2.80;99.90;;;;;;5053682;28;20072;-78
2021/12/06 00:26:25;;;;;;;44.25;26.20;;;2.80;99.90;;;;;;5053355;28;20523;-79
2021/12/06 00:28:57;;;;;;;45.55;25.80;;;2.70;99.90;;;;;;5043193;28;20528;-79
2021/12/06 00:31:23;;;;;;;49.08;28.08;;;2.70;99.90;;;;;;5042074;28;20563;-79
2021/12/06 00:33:54;;;;;;;45.92;26.60;;;2.70;99.90;;;;;;5042338;28;20055;-79
2021/12/06 00:36:27;;;;;;;47.83;26.08;;;2.80;99.90;;;;;;5042795;28;20064;-78
2021/12/06 00:38:53;;;;;;;45.85;25.70;;;2.70;99.90;;;;;;5054994;28;20455;-79
2021/12/06 00:41:19;;;;;;;45.83;26.05;;;2.70;99.90;;;;;;5053053;28;20048;-78
2021/12/06 00:43:44;;;;;;;47.47;26.63;;;2.70;99.90;;;;;;5038102;28;20059;-79
2021/12/06 00:46:10;;;;;;;41.40;23.60;;;2.70;99.90;;;;;;5042257;28;20113;-78
2021/12/06 00:48:36;;;;;;;43.20;24.02;;;2.70;99.90;;;;;;5042007;28;20502;-80
2021/12/06 00:51:02;;;;;;;38.78;22.75;;;2.70;99.90;;;;;;5039422;28;20044;-78
2021/12/06 00:53:27;;;;;;;40.42;23.73;;;2.60;99.90;;;;;;5029588;28;20149;-78
2021/12/06 00:55:53;;;;;;;36.25;22.63;;;2.60;99.90;;;;;;5042813;28;20041;-78
2021/12/06 00:58:19;;;;;;;40.92;24.00;;;2.60;99.90;;;;;;5042074;28;20121;-79
2021/12/06 01:00:48;;;;;;;42.60;23.58;;;2.60;99.90;;;;;;5041910;28;20524;-78
2021/12/06 01:03:29;;;;;;;37.67;22.42;;;2.60;99.90;;;;;;5041936;28;20416;-78
2021/12/06 01:05:55;;;;;;;38.78;23.23;;;2.60;99.90;;;;;;5022618;28;20036;-78
2021/12/06 01:08:21;;;;;;;38.33;22.63;;;2.60;99.90;;;;;;5022947;28;20037;-78
2021/12/06 01:10:48;;;;;;;39.67;23.90;;;2.60;99.90;;;;;;5022454;28;20072;-78
2021/12/06 01:13:14;;;;;;;41.63;24.40;;;2.50;99.90;;;;;;5029222;28;20051;-79
2021/12/06 01:15:40;;;;;;;40.08;23.40;;;2.50;99.90;;;;;;5059234;28;20381;-79
2021/12/06 01:18:09;;;;;;;41.58;25.25;;;2.50;99.90;;;;;;5054981;28;20251;-79
2021/12/06 01:20:41;;;;;;;43.17;24.77;;;2.50;99.90;;;;;;5057192;28;20036;-78
2021/12/06 01:23:11;;;;;;;40.33;23.83;;;2.50;99.90;;;;;;5058653;28;20166;-78
2021/12/06 01:26:14;;;;;;;39.55;24.55;;;2.50;99.90;;;;;;5041240;28;20496;-78
2021/12/06 01:33:33;;;;;;;42.28;23.83;;;2.50;99.90;;;;;;5044652;28;20453;-78
2021/12/06 01:41:33;;;;;;;39.40;23.88;;;2.40;99.90;;;;;;5054796;28;20048;-78
2021/12/06 01:44:08;;;;;;;45.55;24.10;;;2.40;99.90;;;;;;5021438;28;20037;-78
2021/12/06 01:46:36;;;;;;;40.08;24.13;;;2.40;99.90;;;;;;5037536;28;20330;-78
2021/12/06 01:49:04;;;;;;;42.60;23.73;;;2.40;99.90;;;;;;5021854;28;20033;-78
2021/12/06 01:51:30;;;;;;;40.25;24.17;;;2.40;99.90;;;;;;5038022;28;20041;-78
2021/12/06 01:53:56;;;;;;;43.63;25.67;;;2.30;99.90;;;;;;5053393;28;20037;-78
2021/12/06 01:56:21;;;;;;;42.83;24.67;;;2.40;99.90;;;;;;5020827;28;20032;-78
2021/12/06 01:58:47;;;;;;;40.40;23.25;;;2.40;99.90;;;;;;5036412;28;20406;-79
2021/12/06 02:01:13;;;;;;;45.60;24.50;;;2.30;99.90;;;;;;5038142;28;20037;-78
2021/12/06 02:03:38;;;;;;;43.10;24.58;;;2.40;99.90;;;;;;5020804;28;20125;-78
2021/12/06 02:06:05;;;;;;;43.88;24.58;;;2.40;99.90;;;;;;5021155;28;20029;-79
2021/12/06 02:08:30;;;;;;;49.63;27.15;;;2.40;99.90;;;;;;5018277;28;20049;-79
2021/12/06 02:11:02;;;;;;;48.13;25.48;;;2.40;99.90;;;;;;5034427;28;20382;-79
2021/12/06 02:13:32;;;;;;;50.95;28.30;;;2.40;99.90;;;;;;5034079;28;20032;-79
2021/12/06 02:15:58;;;;;;;51.38;27.60;;;2.40;99.90;;;;;;5045283;28;20041;-79
2021/12/06 02:21:10;;;;;;;50.95;27.70;;;2.30;99.90;;;;;;5034291;28;20124;-79
2021/12/06 02:23:36;;;;;;;58.25;28.17;;;2.30;99.90;;;;;;5032519;28;20063;-80
2021/12/06 02:26:02;;;;;;;58.13;29.58;;;2.30;99.90;;;;;;5037487;28;20068;-79
2021/12/06 02:28:27;;;;;;;54.45;28.70;;;2.30;99.90;;;;;;5037488;28;20032;-79
2021/12/06 02:30:53;;;;;;;55.65;27.40;;;2.30;99.90;;;;;;5018903;28;20045;-79
2021/12/06 02:33:19;;;;;;;59.20;28.63;;;2.30;99.90;;;;;;5017405;28;20131;-79
2021/12/06 02:35:44;;;;;;;60.85;29.27;;;2.30;99.90;;;;;;5033835;28;20107;-79
2021/12/06 02:38:10;;;;;;;58.80;28.95;;;2.20;99.90;;;;;;5049612;28;20040;-79
2021/12/06 02:40:38;;;;;;;59.63;27.63;;;2.20;99.90;;;;;;5017513;28;20390;-79
2021/12/06 02:43:06;;;;;;;63.67;28.90;;;2.20;99.90;;;;;;5033747;28;20064;-79
2021/12/06 02:45:33;;;;;;;58.08;28.58;;;2.30;99.90;;;;;;5018383;28;20136;-79
2021/12/06 02:48:02;;;;;;;58.60;28.80;;;2.30;99.90;;;;;;5017320;28;20044;-79
2021/12/06 02:50:35;;;;;;;53.92;27.20;;;2.30;99.90;;;;;;5034158;28;20029;-79
2021/12/06 02:53:00;;;;;;;56.92;28.17;;;2.30;99.90;;;;;;5033787;28;20055;-79
2021/12/06 02:55:33;;;;;;;65.03;30.95;;;2.20;99.90;;;;;;5017075;28;20037;-79
2021/12/06 02:58:13;;;;;;;60.40;27.75;;;2.20;99.90;;;;;;5033954;28;20094;-79
2021/12/06 03:00:42;;;;;;;59.00;27.77;;;2.20;99.90;;;;;;5034879;28;20037;-80
2021/12/06 03:03:07;;;;;;;65.60;27.15;;;2.30;99.90;;;;;;5023679;28;20066;-79
2021/12/06 03:05:33;;;;;;;64.80;28.75;;;2.30;99.90;;;;;;5049381;28;20124;-79
2021/12/06 03:08:00;;;;;;;65.88;29.95;;;2.30;99.90;;;;;;5016962;28;20083;-79
2021/12/06 03:10:27;;;;;;;65.90;29.58;;;2.30;99.90;;;;;;5032587;28;20501;-79
2021/12/06 03:12:53;;;;;;;60.90;28.00;;;2.30;99.90;;;;;;5017322;28;20039;-79
2021/12/06 03:15:18;;;;;;;70.95;29.95;;;2.30;99.90;;;;;;5030537;28;20474;-79
2021/12/06 03:17:46;;;;;;;73.47;30.05;;;2.30;99.90;;;;;;5025511;28;20045;-79
2021/12/06 03:20:14;;;;;;;67.65;29.20;;;2.30;99.90;;;;;;5020552;28;20037;-79
2021/12/06 03:22:44;;;;;;;65.18;27.48;;;2.30;99.90;;;;;;5016779;28;20068;-79
2021/12/06 03:25:12;;;;;;;67.78;28.42;;;2.30;99.90;;;;;;5017007;28;20128;-79
2021/12/06 03:27:37;;;;;;;65.13;28.55;;;2.30;99.90;;;;;;5016910;28;20060;-79
2021/12/06 03:30:06;;;;;;;63.78;29.10;;;2.30;99.90;;;;;;5016978;28;20504;-79
2021/12/06 03:32:32;;;;;;;59.13;27.27;;;2.30;99.90;;;;;;5048362;28;20040;-79
2021/12/06 03:34:58;;;;;;;67.43;28.40;;;2.30;99.90;;;;;;5016716;28;20127;-79
2021/12/06 03:37:23;;;;;;;63.47;28.77;;;2.30;99.90;;;;;;5016938;28;20512;-79
2021/12/06 03:39:49;;;;;;;64.18;27.92;;;2.40;99.90;;;;;;5033473;28;20131;-78
2021/12/06 03:42:17;;;;;;;55.25;25.55;;;2.30;99.90;;;;;;5016912;28;20053;-79
2021/12/06 03:44:43;;;;;;;58.08;26.88;;;2.40;99.90;;;;;;5020299;28;20406;-79
2021/12/06 03:47:14;;;;;;;57.55;27.30;;;2.40;99.90;;;;;;5049172;28;20036;-79
2021/12/06 03:49:42;;;;;;;55.15;25.77;;;2.40;99.90;;;;;;5033539;28;20045;-78
2021/12/06 03:52:08;;;;;;;55.80;26.30;;;2.40;99.90;;;;;;5051567;28;20036;-79
2021/12/06 03:54:34;;;;;;;55.58;26.50;;;2.40;99.90;;;;;;5016609;28;20037;-79
2021/12/06 03:57:01;;;;;;;54.58;26.35;;;2.40;99.90;;;;;;5033173;28;20555;-79
2021/12/06 03:59:27;;;;;;;56.25;25.83;;;2.40;99.90;;;;;;5026396;28;20059;-79
2021/12/06 04:01:53;;;;;;;59.67;27.60;;;2.40;99.90;;;;;;5017178;28;20519;-79
2021/12/06 04:04:19;;;;;;;56.15;24.95;;;2.40;99.90;;;;;;5016440;28;20127;-79
2021/12/06 04:06:45;;;;;;;61.55;27.38;;;2.40;99.90;;;;;;5033388;28;20124;-79
2021/12/06 04:09:11;;;;;;;63.45;28.05;;;2.50;99.90;;;;;;5035996;28;20152;-79
2021/12/06 04:11:37;;;;;;;57.53;25.55;;;2.40;99.90;;;;;;5036776;28;20032;-79
2021/12/06 04:14:05;;;;;;;67.93;26.88;;;2.40;99.90;;;;;;5051705;28;20044;-79
2021/12/06 04:16:31;;;;;;;60.83;26.25;;;2.50;99.90;;;;;;5024198;28;20044;-79
2021/12/06 04:18:57;;;;;;;59.40;25.63;;;2.40;99.90;;;;;;5020034;28;20037;-79
2021/12/06 04:21:23;;;;;;;69.72;27.95;;;2.50;99.90;;;;;;5020261;28;20511;-79
2021/12/06 04:23:49;;;;;;;68.72;26.67;;;2.50;99.90;;;;;;5036508;28;20033;-79
2021/12/06 04:26:15;;;;;;;72.60;27.38;;;2.50;99.90;;;;;;5036529;28;20489;-79
2021/12/06 04:28:47;;;;;;;69.50;27.85;;;2.50;99.90;;;;;;5020066;28;20476;-79
2021/12/06 04:31:14;;;;;;;69.25;27.25;;;2.50;99.90;;;;;;5030217;28;20481;-79
2021/12/06 04:33:40;;;;;;;70.97;25.85;;;2.50;99.90;;;;;;5036484;28;20509;-80
2021/12/06 04:36:05;;;;;;;74.07;26.38;;;2.50;99.90;;;;;;5036365;28;20072;-79
2021/12/06 04:38:31;;;;;;;85.97;27.90;;;2.60;99.90;;;;;;5019849;28;20033;-79
2021/12/06 04:40:57;;;;;;;89.07;28.20;;;2.50;99.90;;;;;;5019695;28;20550;-79
2021/12/06 04:43:22;;;;;;;93.72;29.45;;;2.50;99.90;;;;;;5027325;28;20571;-79
2021/12/06 04:45:48;;;;;;;123.65;31.95;;;2.50;99.90;;;;;;5021911;28;20551;-79
2021/12/06 04:48:13;;;;;;;104.10;29.10;;;2.40;99.90;;;;;;5019409;28;20041;-79
2021/12/06 04:50:42;;;;;;;97.65;26.95;;;2.40;99.90;;;;;;5035929;28;20071;-78
2021/12/06 04:53:14;;;;;;;107.75;28.98;;;2.50;99.90;;;;;;5035775;28;20063;-79
2021/12/06 04:55:43;;;;;;;;;;;2.50;99.90;;;;;;5026392;28;20048;-79
2021/12/06 04:58:13;;;;;;;105.90;28.17;;;2.50;99.90;;;;;;5037987;28;19927;-79
2021/12/06 05:00:48;;;;;;;125.85;30.52;;;2.50;99.90;;;;;;5039033;28;20041;-79
2021/12/06 05:03:16;;;;;;;100.75;28.58;;;2.50;99.90;;;;;;5038742;28;20043;-79
2021/12/06 05:05:48;;;;;;;106.90;28.00;;;2.50;99.90;;;;;;5055357;28;20080;-79
2021/12/06 05:08:22;;;;;;;130.70;30.67;;;2.50;99.90;;;;;;5051553;28;20037;-78
2021/12/06 05:10:49;;;;;;;138.75;29.00;;;2.50;99.90;;;;;;5035477;28;20044;-79
2021/12/06 05:13:14;;;;;;;108.50;26.35;;;2.50;99.90;;;;;;5018672;28;20041;-79
2021/12/06 05:15:40;;;;;;;127.40;29.88;;;2.50;99.90;;;;;;5045758;28;20390;-79
2021/12/06 05:18:06;;;;;;;145.88;32.10;;;2.50;99.90;;;;;;5052120;28;20118;-79
2021/12/06 05:20:34;;;;;;;122.07;28.90;;;2.50;99.90;;;;;;5018795;28;20037;-79
2021/12/06 05:23:01;;;;;;;137.65;32.13;;;2.50;99.90;;;;;;5021592;28;20041;-79
2021/12/06 05:25:27;;;;;;;137.15;29.52;;;2.50;99.90;;;;;;5018694;28;20045;-79
2021/12/06 05:27:53;;;;;;;144.15;31.38;;;2.50;99.90;;;;;;5035516;28;20090;-79
2021/12/06 05:30:23;;;;;;;131.05;30.23;;;2.60;99.90;;;;;;5041435;28;20033;-79
2021/12/06 05:32:49;;;;;;;119.95;30.13;;;2.60;99.90;;;;;;5035153;28;20072;-79
2021/12/06 05:35:15;;;;;;;153.50;31.08;;;2.60;99.90;;;;;;5035374;28;20075;-79
2021/12/06 05:37:49;;;;;;;167.20;33.20;;;2.60;99.90;;;;;;5021505;28;20047;-79
2021/12/06 05:40:19;;;;;;;136.63;31.25;;;2.60;99.90;;;;;;5038431;28;20049;-79
2021/12/06 05:42:45;;;;;;;131.55;30.90;;;2.50;99.90;;;;;;5038636;28;20072;-79
2021/12/06 05:45:12;;;;;;;116.70;30.88;;;2.60;99.90;;;;;;5024233;28;20399;-79
2021/12/06 05:47:37;;;;;;;640.97;65.63;;;2.60;99.90;;;;;;5037348;28;20090;-79
2021/12/06 05:50:05;;;;;;;164.68;33.35;;;2.60;99.90;;;;;;5038312;28;20119;-79
2021/12/06 05:52:30;;;;;;;163.18;32.15;;;2.60;99.90;;;;;;5038224;28;20044;-78
2021/12/06 05:54:56;;;;;;;158.25;33.33;;;2.60;99.90;;;;;;5037860;28;20500;-80
2021/12/06 05:57:22;;;;;;;155.93;32.17;;;2.60;99.90;;;;;;5038102;28;20169;-79
2021/12/06 05:59:47;;;;;;;130.80;31.90;;;2.60;99.90;;;;;;5021477;28;20051;-79
2021/12/06 06:02:14;;;;;;;178.50;33.97;;;2.60;99.90;;;;;;5029123;28;20048;-78
2021/12/06 06:04:40;;;;;;;160.75;32.50;;;2.60;99.90;;;;;;5019223;28;20047;-79
2021/12/06 06:07:06;;;;;;;134.45;33.47;;;2.60;99.90;;;;;;5039985;28;20040;-79
2021/12/06 06:09:32;;;;;;;121.80;32.35;;;2.60;99.90;;;;;;5036605;28;20036;-79
2021/12/06 06:11:59;;;;;;;137.10;34.33;;;2.60;99.90;;;;;;5037155;28;20396;-81
2021/12/06 06:14:25;;;;;;;141.73;33.90;;;2.70;99.90;;;;;;5042099;28;20055;-81
2021/12/06 06:16:52;;;;;;;129.90;31.33;;;2.60;99.90;;;;;;5044769;28;20499;-80
2021/12/06 06:19:21;;;;;;;135.57;34.53;;;2.70;99.90;;;;;;5043839;28;20054;-79
2021/12/06 06:21:47;;;;;;;115.53;32.95;;;2.70;99.90;;;;;;5037142;28;20051;-79
2021/12/06 06:24:13;;;;;;;116.13;31.25;;;2.70;99.90;;;;;;5034328;28;20036;-78
2021/12/06 06:26:39;;;;;;;104.32;32.42;;;2.70;99.90;;;;;;5053130;28;20043;-79
2021/12/06 06:29:05;;;;;;;93.22;31.00;;;2.60;99.90;;;;;;5054860;28;20097;-79
2021/12/06 06:31:31;;;;;;;97.90;31.38;;;2.70;99.90;;;;;;5057587;28;20115;-78
2021/12/06 06:33:56;;;;;;;99.70;31.63;;;2.70;99.90;;;;;;5023731;28;20470;-79
2021/12/06 06:36:22;;;;;;;99.75;31.52;;;2.60;99.90;;;;;;5035065;28;20159;-78
2021/12/06 06:38:47;;;;;;;91.95;30.65;;;2.70;99.90;;;;;;5033349;28;20128;-78
2021/12/06 06:41:13;;;;;;;106.45;30.33;;;2.60;99.90;;;;;;5036368;28;20249;-79
2021/12/06 06:43:38;;;;;;;86.10;30.35;;;2.60;99.90;;;;;;5035776;28;20452;-77
2021/12/06 06:46:05;;;;;;;90.45;31.35;;;2.60;99.90;;;;;;5040776;28;20508;-77
2021/12/06 06:48:31;;;;;;;101.35;31.30;;;2.60;99.90;;;;;;5063771;28;20412;-77
2021/12/06 06:50:57;;;;;;;88.63;29.75;;;2.60;99.90;;;;;;5035657;28;20037;-77
2021/12/06 06:53:22;;;;;;;78.40;29.50;;;2.60;99.90;;;;;;5038723;28;20480;-77
2021/12/06 06:55:48;;;;;;;85.97;29.23;;;2.60;99.90;;;;;;5064430;28;20040;-77
2021/12/06 06:58:14;;;;;;;78.03;29.45;;;2.60;99.90;;;;;;5027867;28;20344;-81
2021/12/06 07:00:39;;;;;;;84.90;28.95;;;2.60;99.90;;;;;;5018453;28;20048;-75
2021/12/06 07:03:08;;;;;;;74.47;28.27;;;2.50;99.90;;;;;;5044410;28;20043;-76
2021/12/06 07:05:35;;;;;;;77.57;27.55;;;2.50;99.90;;;;;;5047845;28;20040;-76
2021/12/06 07:08:01;;;;;;;76.70;30.05;;;2.50;99.90;;;;;;5051605;28;20102;-76
2021/12/06 07:10:27;;;;;;;83.28;30.27;;;2.50;99.90;;;;;;5048935;28;20489;-76
2021/12/06 07:12:54;;;;;;;85.00;30.95;;;2.50;99.90;;;;;;5033231;28;20110;-76
2021/12/06 07:15:29;;;;;;;84.00;29.92;;;2.50;99.90;;;;;;5051318;28;20051;-76
2021/12/06 07:17:56;;;;;;;75.45;28.60;;;2.50;99.90;;;;;;5020497;28;20439;-77
2021/12/06 07:20:23;;;;;;;77.03;29.48;;;2.40;99.90;;;;;;5056551;28;20041;-76
2021/12/06 07:22:52;;;;;;;85.40;30.05;;;2.40;99.90;;;;;;5043934;28;20035;-77
2021/12/06 07:25:19;;;;;;;81.90;28.88;;;2.40;99.90;;;;;;5025514;28;20047;-81
2021/12/06 07:27:45;;;;;;;86.97;29.95;;;2.40;99.90;;;;;;5024440;28;20045;-80
2021/12/06 07:30:12;;;;;;;83.30;30.52;;;2.40;99.90;;;;;;5028530;28;20044;-81
2021/12/06 07:32:38;;;;;;;84.70;29.77;;;2.40;99.90;;;;;;5029928;28;20435;-82
2021/12/06 07:35:05;;;;;;;88.90;30.77;;;2.40;99.90;;;;;;5036657;28;20032;-82
2021/12/06 07:37:31;;;;;;;91.78;32.08;;;2.40;99.90;;;;;;5036770;28;20045;-82
2021/12/06 07:39:57;;;;;;;84.60;31.58;;;2.40;99.90;;;;;;5037079;28;20136;-82
2021/12/06 07:42:22;;;;;;;84.47;32.15;;;2.40;99.90;;;;;;5036967;28;20095;-82
2021/12/06 07:44:48;;;;;;;89.80;31.98;;;2.40;99.90;;;;;;5056978;28;20107;-81
2021/12/06 07:47:14;;;;;;;86.28;32.20;;;2.40;99.90;;;;;;5040470;28;20037;-82
2021/12/06 07:49:43;;;;;;;86.95;32.13;;;2.40;99.90;;;;;;5057134;28;20125;-82
2021/12/06 07:52:09;;;;;;;97.22;33.78;;;2.40;99.90;;;;;;5040633;28;20511;-82
2021/12/06 07:54:35;;;;;;;90.68;31.67;;;2.40;99.90;;;;;;5056763;28;20036;-82
2021/12/06 07:57:01;;;;;;;90.90;33.55;;;2.40;99.90;;;;;;5040207;28;20131;-82
2021/12/06 07:59:27;;;;;;;88.95;30.60;;;2.40;99.90;;;;;;5040348;28;20489;-82
2021/12/06 08:01:53;;;;;;;93.95;31.83;;;2.40;99.90;;;;;;5040623;28;20059;-82
2021/12/06 08:04:19;;;;;;;88.85;32.22;;;2.40;99.90;;;;;;5039990;28;20056;-82
2021/12/06 08:06:45;;;;;;;94.63;34.13;;;2.40;99.90;;;;;;5040753;28;20404;-82
2021/12/06 08:09:11;;;;;;;89.72;35.17;;;2.40;99.90;;;;;;5040265;28;20040;-81
2021/12/06 08:11:36;;;;;;;83.55;33.15;;;2.40;99.90;;;;;;5056662;28;20101;-81
2021/12/06 08:14:03;;;;;;;84.70;33.17;;;2.40;99.90;;;;;;5056344;28;20420;-82
2021/12/06 08:16:32;;;;;;;80.90;30.95;;;2.40;99.90;;;;;;5040398;28;20032;-82
2021/12/06 08:18:59;;;;;;;83.03;32.20;;;2.40;99.90;;;;;;5039947;28;20401;-82
2021/12/06 08:21:26;;;;;;;80.82;32.47;;;2.40;99.90;;;;;;5039994;28;20052;-81
2021/12/06 08:23:54;;;;;;;77.15;31.40;;;2.40;99.90;;;;;;5039561;28;20040;-82
2021/12/06 08:26:22;;;;;;;80.88;31.25;;;2.40;99.90;;;;;;5056352;28;20049;-81
2021/12/06 08:28:49;;;;;;;82.55;30.13;;;2.40;99.90;;;;;;5039585;28;20123;-82
2021/12/06 08:31:18;;;;;;;84.68;33.08;;;2.40;99.90;;;;;;5039766;28;20033;-82
2021/12/06 08:33:45;;;;;;;77.35;29.23;;;2.40;99.90;;;;;;5039505;28;20079;-82
2021/12/06 08:36:12;;;;;;;74.18;28.92;;;2.40;99.90;;;;;;5039839;28;20041;-83
2021/12/06 08:38:39;;;;;;;70.70;27.08;;;2.30;99.90;;;;;;5039514;28;20466;-82
2021/12/06 08:41:11;;;;;;;66.43;27.35;;;2.40;99.90;;;;;;5040049;28;20463;-82
2021/12/06 08:43:38;;;;;;;60.80;25.42;;;2.40;99.90;;;;;;5039516;28;20047;-82
2021/12/06 08:46:08;;;;;;;54.58;25.38;;;2.40;99.90;;;;;;5056262;28;20052;-82
2021/12/06 08:48:36;;;;;;;53.88;24.85;;;2.40;99.90;;;;;;5056292;28;20063;-82
2021/12/06 08:51:10;;;;;;;56.50;25.67;;;2.30;99.90;;;;;;5039729;28;20127;-82
2021/12/06 08:53:36;;;;;;;50.83;24.35;;;2.30;99.90;;;;;;5038960;28;20094;-82
2021/12/06 08:56:02;;;;;;;51.60;23.35;;;2.30;99.90;;;;;;5056000;28;20396;-81
2021/12/06 08:58:27;;;;;;;55.15;24.50;;;2.30;99.90;;;;;;5039291;28;20093;-82
2021/12/06 09:00:53;;;;;;;53.67;24.42;;;2.30;99.90;;;;;;5056222;28;20307;-82
2021/12/06 09:03:19;;;;;;;51.45;23.75;;;2.30;99.90;;;;;;5038985;28;20047;-82
2021/12/06 09:05:50;;;;;;;58.58;24.75;;;2.30;99.90;;;;;;5055573;28;20044;-82
2021/12/06 09:08:16;;;;;;;56.72;25.05;;;2.30;99.90;;;;;;5038954;28;20036;-82
2021/12/06 09:10:43;;;;;;;56.85;23.00;;;2.30;99.90;;;;;;5039322;28;20055;-81
2021/12/06 09:13:09;;;;;;;60.00;24.52;;;2.30;99.90;;;;;;5055415;28;20082;-82
2021/12/06 09:15:35;;;;;;;49.65;22.73;;;2.30;99.90;;;;;;5038858;28;20455;-82
2021/12/06 09:18:01;;;;;;;58.50;22.75;;;2.30;99.90;;;;;;5055480;28;20098;-82
2021/12/06 09:20:30;;;;;;;52.60;22.80;;;2.30;99.90;;;;;;5039016;28;20511;-83
2021/12/06 09:22:57;;;;;;;49.70;23.13;;;2.40;99.90;;;;;;5055148;28;20033;-82
2021/12/06 09:25:22;;;;;;;53.63;23.63;;;2.40;99.90;;;;;;5038713;28;20038;-82
2021/12/06 09:27:48;;;;;;;55.38;24.55;;;2.40;99.90;;;;;;5039105;28;20128;-82
2021/12/06 09:30:17;;;;;;;54.33;23.02;;;2.50;99.90;;;;;;5038616;28;20036;-82
2021/12/06 09:32:44;;;;;;;46.90;22.27;;;2.50;99.90;;;;;;5038436;28;20040;-82
2021/12/06 09:35:13;;;;;;;47.88;22.52;;;2.60;99.90;;;;;;5038620;28;20036;-82
2021/12/06 09:37:40;;;;;;;44.88;20.38;;;2.60;99.90;;;;;;5038662;28;20037;-82
2021/12/06 09:40:07;;;;;;;43.85;21.90;;;2.70;99.90;;;;;;5038819;28;20047;-83
2021/12/06 09:42:36;;;;;;;44.72;22.25;;;2.70;99.90;;;;;;5038111;28;20123;-82
2021/12/06 09:45:03;;;;;;;42.72;19.85;;;2.70;99.90;;;;;;5038608;28;20043;-82
2021/12/06 09:47:31;;;;;;;45.65;21.73;;;2.60;99.90;;;;;;5038268;28;20095;-82
2021/12/06 09:49:56;;;;;;;48.85;21.60;;;2.60;99.90;;;;;;5038152;28;20040;-82
2021/12/06 09:52:22;;;;;;;47.55;22.67;;;2.60;99.90;;;;;;5054843;28;20463;-82
2021/12/06 09:54:47;;;;;;;48.60;21.88;;;2.60;99.90;;;;;;5054518;28;20043;-82
2021/12/06 09:57:13;;;;;;;50.85;22.23;;;2.70;99.90;;;;;;5054829;28;20404;-82
2021/12/06 09:59:41;;;;;;;53.20;23.10;;;2.70;99.90;;;;;;5038404;28;20071;-82
2021/12/06 10:02:18;;;;;;;50.33;22.45;;;2.70;99.90;;;;;;5038333;28;20041;-82
2021/12/06 10:04:50;;;;;;;53.28;23.05;;;2.70;99.90;;;;;;5054298;28;20044;-82
2021/12/06 10:07:17;;;;;;;;;;;2.80;99.90;;;;;;5037993;28;20078;-82
2021/12/06 10:09:44;;;;;;;56.58;23.08;;;2.80;99.90;;;;;;5038123;28;19927;-82
2021/12/06 10:12:11;;;;;;;53.78;22.77;;;2.90;99.90;;;;;;5038051;28;20485;-82
2021/12/06 10:14:37;;;;;;;53.78;23.23;;;2.80;99.90;;;;;;5037635;28;20041;-82
2021/12/06 10:17:05;;;;;;;55.63;23.17;;;2.80;99.90;;;;;;5037651;28;20039;-82
2021/12/06 10:19:32;;;;;;;59.50;23.63;;;2.80;99.90;;;;;;5037726;28;20036;-82
2021/12/06 10:21:57;;;;;;;58.13;22.92;;;2.80;99.90;;;;;;5054504;28;20040;-81
2021/12/06 10:24:27;;;;;;;59.25;23.75;;;2.80;99.90;;;;;;5037582;28;20041;-82
2021/12/06 10:27:09;;;;;;;61.47;24.35;;;2.80;99.90;;;;;;5037660;28;20047;-82
2021/12/06 10:29:39;;;;;;;60.88;24.33;;;2.90;99.90;;;;;;5037454;28;20093;-83
2021/12/06 10:32:12;;;;;;;66.15;25.85;;;2.90;99.90;;;;;;5037625;28;20485;-82
2021/12/06 10:34:44;;;;;;;63.08;24.42;;;2.90;99.90;;;;;;5054004;28;20036;-81
2021/12/06 10:37:48;;;;;;;59.53;25.17;;;2.90;99.90;;;;;;5037585;28;20123;-82
2021/12/06 10:40:20;;;;;;;65.50;24.02;;;2.90;99.90;;;;;;5037733;28;20429;-82
2021/12/06 10:42:48;;;;;;;59.33;22.45;;;2.90;99.90;;;;;;5037349;28;20071;-82
2021/12/06 10:45:16;;;;;;;56.40;21.77;;;2.90;99.90;;;;;;5037236;28;20072;-82
2021/12/06 10:47:44;;;;;;;55.50;22.88;;;2.90;99.90;;;;;;5053864;28;20044;-81
2021/12/06 10:50:17;;;;;;;56.08;21.00;;;2.90;99.90;;;;;;5037304;28;20109;-82
2021/12/06 10:52:56;;;;;;;52.13;21.58;;;3.00;99.90;;;;;;5053615;28;20032;-82
2021/12/06 10:55:24;;;;;;;51.85;21.50;;;3.00;99.90;;;;;;5037168;28;20091;-82
2021/12/06 10:57:58;;;;;;;46.90;19.92;;;3.00;99.90;;;;;;5053743;28;20257;-82
2021/12/06 11:00:40;;;;;;;51.08;20.42;;;3.00;99.90;;;;;;5053887;28;20043;-82
2021/12/06 11:03:28;;;;;;;48.20;19.17;;;3.00;99.90;;;;;;5036777;28;20038;-82
2021/12/06 11:06:01;;;;;;;46.67;18.85;;;3.00;99.90;;;;;;5036917;28;20090;-82
2021/12/06 11:08:28;;;;;;;43.03;19.15;;;3.00;99.90;;;;;;5037135;28;20036;-82
2021/12/06 11:11:04;;;;;;;48.00;20.27;;;3.00;99.90;;;;;;5037130;28;20032;-82
2021/12/06 11:13:34;;;;;;;55.67;22.92;;;3.00;99.90;;;;;;5053492;28;20029;-82
2021/12/06 11:16:08;;;;;;;48.75;21.50;;;3.00;99.90;;;;;;5036818;28;20527;-82
2021/12/06 11:18:54;;;;;;;51.17;20.92;;;3.10;99.90;;;;;;5041166;28;20098;-82
2021/12/06 11:21:21;;;;;;;48.63;21.73;;;3.10;99.90;;;;;;5057374;28;20076;-81
2021/12/06 11:23:55;;;;;;;46.95;21.30;;;3.10;99.90;;;;;;5040759;28;20131;-82
2021/12/06 11:26:21;;;;;;;58.78;24.50;;;3.10;99.90;;;;;;5040992;28;20040;-82
2021/12/06 11:28:47;;;;;;;56.13;25.27;;;3.10;99.90;;;;;;5041042;28;20041;-82
2021/12/06 11:31:16;;;;;;;62.65;25.88;;;3.10;99.90;;;;;;5057530;28;20039;-82
2021/12/06 11:33:41;;;;;;;67.15;26.23;;;3.20;99.90;;;;;;5057637;28;20385;-82
2021/12/06 11:36:25;;;;;;;69.03;27.67;;;3.20;99.90;;;;;;5040730;28;20043;-82
2021/12/06 11:38:58;;;;;;;68.28;27.58;;;3.20;99.90;;;;;;5040997;28;20207;-82
2021/12/06 11:41:23;;;;;;;66.68;28.17;;;3.10;99.90;;;;;;5040761;28;20075;-82
2021/12/06 11:43:49;;;;;;;60.38;25.73;;;3.10;99.90;;;;;;5057163;28;20079;-82
2021/12/06 11:46:30;;;;;;;63.80;27.05;;;3.10;99.90;;;;;;5062367;28;20036;-82
2021/12/06 11:48:56;;;;;;;61.95;27.02;;;3.10;99.90;;;;;;5066034;28;20350;-82
2021/12/06 11:51:24;;;;;;;64.97;28.13;;;3.10;99.90;;;;;;5040590;28;20492;-81
2021/12/06 11:53:54;;;;;;;67.20;27.48;;;3.00;99.90;;;;;;5040565;28;20045;-82
2021/12/06 11:56:22;;;;;;;69.65;28.98;;;3.00;99.90;;;;;;5040906;28;20407;-82
2021/12/06 11:58:52;;;;;;;66.70;28.27;;;3.00;99.90;;;;;;5040663;28;20048;-83
2021/12/06 12:01:22;;;;;;;67.97;28.52;;;3.00;99.90;;;;;;5040250;28;20071;-82
2021/12/06 12:03:51;;;;;;;71.93;29.63;;;3.00;99.90;;;;;;5040712;28;20045;-82
2021/12/06 12:06:29;;;;;;;79.78;30.23;;;3.00;99.90;;;;;;5040262;28;20400;-82
2021/12/06 12:09:10;;;;;;;73.95;29.10;;;3.00;99.90;;;;;;5040339;28;20067;-82
2021/12/06 12:12:11;;;;;;;75.88;29.30;;;3.00;99.90;;;;;;5040557;28;20044;-82
2021/12/06 12:14:46;;;;;;;74.70;30.52;;;3.10;99.90;;;;;;4957321;28;20082;-82
2021/12/06 12:17:16;;;;;;;72.22;30.08;;;3.10;99.90;;;;;;5043004;28;20056;-82
2021/12/06 12:19:43;;;;;;;71.25;29.40;;;3.10;99.90;;;;;;5040579;28;20040;-82
2021/12/06 12:22:11;;;;;;;74.43;30.40;;;3.10;99.90;;;;;;5040407;28;20397;-82
2021/12/06 12:24:39;;;;;;;72.65;29.95;;;3.10;99.90;;;;;;5039855;28;20096;-82
2021/12/06 12:27:19;;;;;;;72.05;29.33;;;3.20;99.90;;;;;;5056519;28;20044;-82
2021/12/06 12:29:46;;;;;;;71.50;30.13;;;3.20;99.90;;;;;;5055973;28;20055;-83
2021/12/06 12:32:13;;;;;;;70.40;29.67;;;3.20;99.90;;;;;;5039950;28;20047;-82
2021/12/06 12:34:43;;;;;;;69.05;29.10;;;3.20;99.90;;;;;;5056444;28;20068;-81
2021/12/06 12:37:10;;;;;;;69.28;28.85;;;3.20;99.90;;;;;;5057206;28;20385;-82
2021/12/06 12:39:36;;;;;;;64.55;29.23;;;3.20;99.90;;;;;;5039747;28;20389;-82
2021/12/06 12:42:05;;;;;;;71.75;30.40;;;3.30;99.90;;;;;;5039823;28;20040;-82
2021/12/06 12:44:53;;;;;;;65.70;29.67;;;3.20;99.90;;;;;;5039485;28;20408;-82
2021/12/06 12:47:29;;;;;;;69.00;29.67;;;3.30;99.90;;;;;;5039784;28;20380;-81
2021/12/06 12:50:02;;;;;;;65.28;27.35;;;3.30;99.90;;;;;;5039588;28;20044;-82
2021/12/06 12:52:44;;;;;;;;;;;3.30;99.90;;;;;;5040089;28;20079;-82
2021/12/06 12:55:19;;;;;;;66.55;29.88;;;3.30;99.90;;;;;;5039777;28;19919;-83